Time;durP1;ratioP1;P1;durP2;ratioP2;P2;SDS_P1;SDS_P2;PMS_P1;PMS_P2;Temp;Humidity;BMP_temperature;BMP_pressure;BME280_temperature;BME280_humidity;BME280_pressure;Samples;Min_cycle;Max_cycle;Signal;HPM_P1;HPM_P2
2021/09/14 00:01:28;;;;;;;3.87;3.15;;;;;;;;;;4418935;32;20233;-56
2021/09/14 00:03:54;;;;;;;7.80;2.78;;;;;;;;;;4433454;32;20265;-56
2021/09/14 00:06:19;;;;;;;7.32;3.33;;;;;;;;;;4418406;32;20356;-56
2021/09/14 00:08:45;;;;;;;4.05;3.17;;;;;;;;;;4422917;32;20312;-56
2021/09/14 00:11:10;;;;;;;4.43;2.75;;;;;;;;;;4417596;32;20768;-56
2021/09/14 00:13:36;;;;;;;5.37;2.95;;;;;;;;;;4418022;32;20328;-57
2021/09/14 00:16:02;;;;;;;7.78;3.15;;;;;;;;;;4417680;32;20679;-56
2021/09/14 00:18:27;;;;;;;3.45;2.75;;;;;;;;;;4417978;32;20672;-56
2021/09/14 00:20:53;;;;;;;5.18;2.65;;;;;;;;;;4433009;32;20549;-57
2021/09/14 00:23:18;;;;;;;7.97;2.87;;;;;;;;;;4432923;32;20228;-56
2021/09/14 00:25:44;;;;;;;6.90;2.75;;;;;;;;;;4433270;32;20192;-56
2021/09/14 00:28:09;;;;;;;3.90;2.80;;;;;;;;;;4433056;32;20320;-57
2021/09/14 00:30:35;;;;;;;6.43;3.00;;;;;;;;;;4433182;32;20353;-56
2021/09/14 00:33:00;;;;;;;4.35;3.00;;;;;;;;;;4425270;32;20276;-57
2021/09/14 00:35:26;;;;;;;3.87;2.78;;;;;;;;;;4417698;32;20499;-56
2021/09/14 00:37:51;;;;;;;3.47;2.42;;;;;;;;;;4417721;32;20225;-57
2021/09/14 00:40:17;;;;;;;6.45;3.45;;;;;;;;;;4416272;32;20435;-56
2021/09/14 00:42:42;;;;;;;8.02;2.80;;;;;;;;;;4417849;32;20252;-56
2021/09/14 00:45:08;;;;;;;7.05;4.00;;;;;;;;;;4417555;32;20284;-57
2021/09/14 00:47:34;;;;;;;5.10;3.12;;;;;;;;;;4416523;32;20665;-56
2021/09/14 00:50:00;;;;;;;6.68;3.20;;;;;;;;;;4416040;32;20312;-56
2021/09/14 00:52:27;;;;;;;5.47;3.55;;;;;;;;;;4417776;32;20292;-56
2021/09/14 00:54:53;;;;;;;8.30;3.45;;;;;;;;;;4416397;32;20232;-57
2021/09/14 00:57:19;;;;;;;4.12;3.08;;;;;;;;;;4417282;32;20240;-57
2021/09/14 00:59:44;;;;;;;4.35;3.35;;;;;;;;;;4418717;32;20555;-56
2021/09/14 01:02:10;;;;;;;4.60;3.20;;;;;;;;;;4419996;32;20747;-56
2021/09/14 01:04:35;;;;;;;10.70;3.28;;;;;;;;;;4420383;32;20271;-57
2021/09/14 01:07:02;;;;;;;3.00;2.70;;;;;;;;;;4431189;32;20850;-56
2021/09/14 01:09:31;;;;;;;5.30;3.45;;;;;;;;;;4434896;32;20605;-56
2021/09/14 01:11:58;;;;;;;6.57;2.85;;;;;;;;;;4435508;32;20263;-56
2021/09/14 01:14:23;;;;;;;5.12;3.00;;;;;;;;;;4435778;32;20766;-57
2021/09/14 01:16:49;;;;;;;5.82;3.65;;;;;;;;;;4435160;32;20266;-57
2021/09/14 01:19:14;;;;;;;7.05;3.25;;;;;;;;;;4435364;32;20757;-56
2021/09/14 01:21:40;;;;;;;3.65;3.33;;;;;;;;;;4435171;32;20616;-57
2021/09/14 01:24:06;;;;;;;6.80;3.58;;;;;;;;;;4431020;32;20514;-56
2021/09/14 01:26:32;;;;;;;10.18;3.40;;;;;;;;;;4435131;32;20239;-56
2021/09/14 01:28:58;;;;;;;4.93;3.47;;;;;;;;;;4435608;32;20585;-56
2021/09/14 01:31:23;;;;;;;6.22;3.92;;;;;;;;;;4421078;32;20279;-57
2021/09/14 01:33:50;;;;;;;8.70;3.03;;;;;;;;;;4408528;32;20328;-56
2021/09/14 01:36:17;;;;;;;5.50;3.03;;;;;;;;;;4419299;32;20327;-56
2021/09/14 01:38:43;;;;;;;8.57;3.53;;;;;;;;;;4419531;32;20221;-56
2021/09/14 01:41:09;;;;;;;4.47;3.08;;;;;;;;;;4419911;32;20252;-56
2021/09/14 01:43:35;;;;;;;9.75;3.28;;;;;;;;;;4419932;32;20298;-56
2021/09/14 01:46:02;;;;;;;5.05;3.15;;;;;;;;;;4419627;32;20221;-56
2021/09/14 01:48:27;;;;;;;5.12;3.33;;;;;;;;;;4405886;32;20259;-56
2021/09/14 01:50:53;;;;;;;3.97;3.03;;;;;;;;;;4419530;32;20212;-56
2021/09/14 01:53:19;;;;;;;5.57;3.42;;;;;;;;;;4419219;32;20634;-56
2021/09/14 01:55:45;;;;;;;5.20;2.90;;;;;;;;;;4419497;32;20645;-56
2021/09/14 01:58:11;;;;;;;6.25;3.67;;;;;;;;;;4419546;32;20346;-56
2021/09/14 02:00:41;;;;;;;6.55;3.58;;;;;;;;;;4419396;32;20269;-56
2021/09/14 02:03:22;;;;;;;6.47;4.03;;;;;;;;;;4419272;32;20251;-56
2021/09/14 02:43:24;;;;;;;6.85;4.07;;;;;;;;;;4418818;32;20281;-56
2021/09/14 02:59:11;;;;;;;7.50;4.53;;;;;;;;;;4418179;32;20304;-56
2021/09/14 03:01:37;;;;;;;7.43;4.37;;;;;;;;;;4418293;32;20396;-56
2021/09/14 03:04:05;;;;;;;7.35;4.75;;;;;;;;;;4418491;32;20275;-56
2021/09/14 03:06:30;;;;;;;8.88;5.68;;;;;;;;;;4425443;32;20208;-56
2021/09/14 03:08:56;;;;;;;6.32;4.85;;;;;;;;;;4432816;32;20259;-56
2021/09/14 03:11:21;;;;;;;5.00;3.65;;;;;;;;;;4433361;32;20629;-56
2021/09/14 03:13:47;;;;;;;8.35;3.70;;;;;;;;;;4433601;32;20637;-56
2021/09/14 03:16:13;;;;;;;7.93;3.72;;;;;;;;;;4433191;32;20277;-56
2021/09/14 03:18:40;;;;;;;4.57;3.85;;;;;;;;;;4433828;32;20285;-57
2021/09/14 03:21:06;;;;;;;11.00;5.30;;;;;;;;;;4433334;32;20269;-56
2021/09/14 03:23:33;;;;;;;16.35;4.75;;;;;;;;;;4433062;32;20212;-57
2021/09/14 03:25:58;;;;;;;9.35;5.12;;;;;;;;;;4433408;32;20219;-57
2021/09/14 03:28:24;;;;;;;9.27;5.97;;;;;;;;;;4433216;32;20399;-57
2021/09/14 03:30:50;;;;;;;12.57;6.95;;;;;;;;;;4433183;32;20236;-57
2021/09/14 03:33:16;;;;;;;10.00;6.12;;;;;;;;;;4419451;32;20320;-57
2021/09/14 03:35:41;;;;;;;8.27;4.78;;;;;;;;;;4433395;32;20549;-57
2021/09/14 03:38:07;;;;;;;12.18;5.40;;;;;;;;;;4406390;32;20296;-56
2021/09/14 03:40:33;;;;;;;9.60;6.53;;;;;;;;;;4433130;32;20188;-57
2021/09/14 03:42:58;;;;;;;8.63;5.47;;;;;;;;;;4433520;32;20229;-57
2021/09/14 03:45:24;;;;;;;8.38;5.72;;;;;;;;;;4433169;32;20656;-57
2021/09/14 03:47:50;;;;;;;10.00;6.12;;;;;;;;;;4433490;32;20386;-56
2021/09/14 03:50:15;;;;;;;10.15;4.70;;;;;;;;;;4433269;32;20312;-56
2021/09/14 03:52:41;;;;;;;9.05;4.15;;;;;;;;;;4433143;32;20325;-56
2021/09/14 03:55:07;;;;;;;10.45;4.30;;;;;;;;;;4432963;32;20263;-55
2021/09/14 03:57:32;;;;;;;5.43;4.10;;;;;;;;;;4432895;32;20274;-55
2021/09/14 03:59:58;;;;;;;12.77;4.78;;;;;;;;;;4433030;32;20265;-55
2021/09/14 04:09:53;;;;;;;7.32;4.10;;;;;;;;;;4432992;32;20564;-56
2021/09/14 04:12:19;;;;;;;4.93;3.35;;;;;;;;;;4432772;32;20251;-56
2021/09/14 04:14:44;;;;;;;6.28;4.30;;;;;;;;;;4432788;32;20636;-56
2021/09/14 04:17:10;;;;;;;4.97;4.07;;;;;;;;;;4418683;32;20625;-56
2021/09/14 04:19:36;;;;;;;9.50;4.32;;;;;;;;;;4418918;32;20752;-56
2021/09/14 04:22:02;;;;;;;6.10;3.97;;;;;;;;;;4432767;32;20547;-56
2021/09/14 04:24:28;;;;;;;16.65;4.82;;;;;;;;;;4433324;32;20276;-57
2021/09/14 04:26:53;;;;;;;8.30;5.03;;;;;;;;;;4433004;32;20258;-56
2021/09/14 04:29:19;;;;;;;9.52;4.43;;;;;;;;;;4432974;32;20268;-56
2021/09/14 04:31:44;;;;;;;8.65;5.10;;;;;;;;;;4432820;32;20215;-56
2021/09/14 04:34:09;;;;;;;5.30;4.10;;;;;;;;;;4419663;32;20276;-56
2021/09/14 04:36:35;;;;;;;6.30;4.18;;;;;;;;;;4420360;32;20310;-56
2021/09/14 04:39:00;;;;;;;6.03;4.53;;;;;;;;;;4420764;32;20239;-56
2021/09/14 04:41:26;;;;;;;7.57;4.62;;;;;;;;;;4420361;32;20282;-56
2021/09/14 04:43:51;;;;;;;6.25;4.65;;;;;;;;;;4420688;32;20216;-56
2021/09/14 04:46:17;;;;;;;6.65;4.28;;;;;;;;;;4420103;32;20268;-56
2021/09/14 04:48:42;;;;;;;8.98;5.15;;;;;;;;;;4420604;32;20283;-56
2021/09/14 04:51:08;;;;;;;10.68;4.43;;;;;;;;;;4420177;32;20275;-56
2021/09/14 04:53:33;;;;;;;11.63;4.20;;;;;;;;;;4420062;32;20605;-56
2021/09/14 04:55:59;;;;;;;10.48;4.68;;;;;;;;;;4420240;32;20243;-56
2021/09/14 04:58:24;;;;;;;5.75;4.28;;;;;;;;;;4420444;32;20209;-56
2021/09/14 05:00:49;;;;;;;12.02;4.60;;;;;;;;;;4421412;32;20248;-56
2021/09/14 05:03:15;;;;;;;12.88;4.97;;;;;;;;;;4435367;32;20303;-56
2021/09/14 05:05:41;;;;;;;8.45;5.05;;;;;;;;;;4435343;32;20607;-56
2021/09/14 05:08:07;;;;;;;5.93;4.37;;;;;;;;;;4434795;32;20213;-56
2021/09/14 05:10:33;;;;;;;6.78;4.50;;;;;;;;;;4435654;32;20223;-56
2021/09/14 05:13:00;;;;;;;11.25;4.50;;;;;;;;;;4435458;32;20270;-56
2021/09/14 05:15:26;;;;;;;7.32;4.45;;;;;;;;;;4435357;32;20605;-57
2021/09/14 05:17:51;;;;;;;10.27;4.97;;;;;;;;;;4435192;32;20212;-57
2021/09/14 05:20:17;;;;;;;6.00;4.10;;;;;;;;;;4434982;32;20304;-57
2021/09/14 05:22:42;;;;;;;5.93;4.22;;;;;;;;;;4435234;32;20359;-55
2021/09/14 05:25:08;;;;;;;7.97;5.28;;;;;;;;;;4421055;32;20299;-56
2021/09/14 05:27:33;;;;;;;6.87;5.03;;;;;;;;;;4435221;32;20289;-56
2021/09/14 05:29:59;;;;;;;10.85;4.75;;;;;;;;;;4435424;32;20264;-56
2021/09/14 05:32:26;;;;;;;6.55;5.15;;;;;;;;;;4431470;32;20649;-56
2021/09/14 05:34:52;;;;;;;8.10;5.20;;;;;;;;;;4419066;32;20761;-56
2021/09/14 05:37:18;;;;;;;8.43;4.85;;;;;;;;;;4416830;32;20241;-56
2021/09/14 05:39:44;;;;;;;8.40;5.32;;;;;;;;;;4418415;32;20277;-56
2021/09/14 05:42:10;;;;;;;7.47;4.40;;;;;;;;;;4419264;32;20365;-58
2021/09/14 05:44:36;;;;;;;9.88;4.75;;;;;;;;;;4417836;32;20336;-59
2021/09/14 05:47:03;;;;;;;6.57;4.78;;;;;;;;;;4418715;32;20189;-57
2021/09/14 05:49:28;;;;;;;9.50;5.40;;;;;;;;;;4417224;32;20241;-57
2021/09/14 05:51:54;;;;;;;14.55;5.93;;;;;;;;;;4425730;32;20266;-57
2021/09/14 05:54:19;;;;;;;14.50;5.85;;;;;;;;;;4432875;32;20345;-57
2021/09/14 05:56:45;;;;;;;13.68;6.37;;;;;;;;;;4418723;32;20283;-57
2021/09/14 05:59:10;;;;;;;8.25;5.07;;;;;;;;;;4418942;32;20338;-57
2021/09/14 06:01:36;;;;;;;11.48;5.10;;;;;;;;;;4432418;32;20720;-56
2021/09/14 06:04:01;;;;;;;10.52;6.25;;;;;;;;;;4433679;32;20297;-56
2021/09/14 06:06:27;;;;;;;13.93;5.12;;;;;;;;;;4434326;32;20648;-56
2021/09/14 06:08:52;;;;;;;12.55;6.20;;;;;;;;;;4434079;32;20225;-56
2021/09/14 06:11:17;;;;;;;12.50;6.32;;;;;;;;;;4432945;32;20276;-57
2021/09/14 06:13:43;;;;;;;20.55;6.07;;;;;;;;;;4431120;32;20291;-57
2021/09/14 06:16:09;;;;;;;9.88;6.15;;;;;;;;;;4431805;32;20267;-56
2021/09/14 06:18:34;;;;;;;19.27;6.80;;;;;;;;;;4432068;32;20576;-57
2021/09/14 06:21:00;;;;;;;15.30;6.78;;;;;;;;;;4415484;32;20236;-57
2021/09/14 06:23:25;;;;;;;18.37;6.60;;;;;;;;;;4432647;32;20609;-57
2021/09/14 06:25:51;;;;;;;15.13;6.47;;;;;;;;;;4418274;32;20236;-57
2021/09/14 06:28:16;;;;;;;11.60;5.65;;;;;;;;;;4431027;32;20678;-57
2021/09/14 06:30:42;;;;;;;9.77;6.20;;;;;;;;;;4431823;32;20208;-57
2021/09/14 06:33:07;;;;;;;9.52;5.60;;;;;;;;;;4423573;32;20275;-57
2021/09/14 06:35:35;;;;;;;11.68;5.93;;;;;;;;;;4417058;32;20288;-57
2021/09/14 06:38:01;;;;;;;10.45;6.00;;;;;;;;;;4417495;32;20726;-56
2021/09/14 06:40:26;;;;;;;9.05;5.28;;;;;;;;;;4418048;32;20300;-55
2021/09/14 06:42:52;;;;;;;6.82;5.12;;;;;;;;;;4417162;32;20259;-56
2021/09/14 06:45:18;;;;;;;10.38;5.30;;;;;;;;;;4418401;32;20286;-57
2021/09/14 06:47:43;;;;;;;11.52;4.80;;;;;;;;;;4418647;32;20652;-56
2021/09/14 06:50:09;;;;;;;9.30;4.28;;;;;;;;;;4418612;32;20263;-56
2021/09/14 06:52:34;;;;;;;7.90;4.82;;;;;;;;;;4420568;32;20342;-56
2021/09/14 06:55:00;;;;;;;7.82;4.68;;;;;;;;;;4434242;32;20719;-56
2021/09/14 06:57:25;;;;;;;14.48;5.35;;;;;;;;;;4418651;32;20324;-56
2021/09/14 06:59:51;;;;;;;11.00;4.32;;;;;;;;;;4419961;32;20722;-56
2021/09/14 07:02:16;;;;;;;13.23;5.60;;;;;;;;;;4433517;32;20651;-57
2021/09/14 07:04:42;;;;;;;6.20;5.10;;;;;;;;;;4434127;32;20570;-56
2021/09/14 07:07:07;;;;;;;9.95;4.47;;;;;;;;;;4433167;32;20236;-56
2021/09/14 07:09:33;;;;;;;10.80;5.22;;;;;;;;;;4418529;32;20268;-56
2021/09/14 07:11:58;;;;;;;5.28;4.00;;;;;;;;;;4418044;32;20220;-56
2021/09/14 07:14:24;;;;;;;9.52;5.40;;;;;;;;;;4418297;32;20790;-57
2021/09/14 07:16:49;;;;;;;18.85;5.93;;;;;;;;;;4418047;32;20213;-56
2021/09/14 07:19:15;;;;;;;17.02;5.20;;;;;;;;;;4418242;32;20307;-56
2021/09/14 07:21:40;;;;;;;6.45;4.15;;;;;;;;;;4417855;32;20225;-57
2021/09/14 07:24:06;;;;;;;5.75;4.40;;;;;;;;;;4417993;32;20225;-57
2021/09/14 07:26:31;;;;;;;11.12;5.37;;;;;;;;;;4418250;32;20205;-57
2021/09/14 07:28:57;;;;;;;10.60;7.45;;;;;;;;;;4417749;32;20221;-57
2021/09/14 07:31:22;;;;;;;11.73;5.53;;;;;;;;;;4417548;32;20278;-57
2021/09/14 07:33:48;;;;;;;9.98;4.95;;;;;;;;;;4418782;32;20251;-57
2021/09/14 07:36:13;;;;;;;6.70;4.62;;;;;;;;;;4432740;32;20209;-57
2021/09/14 07:38:40;;;;;;;5.00;4.00;;;;;;;;;;4433105;32;20223;-57
2021/09/14 07:41:06;;;;;;;7.10;4.70;;;;;;;;;;4418310;32;20295;-57
2021/09/14 07:43:33;;;;;;;9.75;5.43;;;;;;;;;;4433018;32;20245;-57
2021/09/14 07:45:58;;;;;;;5.37;4.43;;;;;;;;;;4433040;32;20201;-57
2021/09/14 07:48:24;;;;;;;7.70;4.75;;;;;;;;;;4433143;32;20518;-57
2021/09/14 07:50:50;;;;;;;11.93;4.57;;;;;;;;;;4431939;32;20281;-57
2021/09/14 07:53:15;;;;;;;7.40;4.82;;;;;;;;;;4433007;32;20648;-57
2021/09/14 07:55:41;;;;;;;9.00;4.12;;;;;;;;;;4432647;32;20650;-57
2021/09/14 07:58:06;;;;;;;7.57;4.93;;;;;;;;;;4418235;32;20639;-57
2021/09/14 08:00:32;;;;;;;6.68;4.68;;;;;;;;;;4432364;32;20228;-57
2021/09/14 08:02:59;;;;;;;11.15;5.10;;;;;;;;;;4432699;32;20228;-57
2021/09/14 08:05:25;;;;;;;7.12;5.15;;;;;;;;;;4432536;32;20291;-56
2021/09/14 08:07:51;;;;;;;7.03;4.65;;;;;;;;;;4431819;32;20277;-56
2021/09/14 08:10:16;;;;;;;10.60;5.00;;;;;;;;;;4432441;32;20988;-57
2021/09/14 08:12:42;;;;;;;11.63;4.60;;;;;;;;;;4430812;32;20232;-57
2021/09/14 08:15:08;;;;;;;6.53;4.15;;;;;;;;;;4425153;32;20318;-57
2021/09/14 08:17:34;;;;;;;7.03;4.72;;;;;;;;;;4432067;32;20263;-56
2021/09/14 08:20:01;;;;;;;6.82;4.62;;;;;;;;;;4432541;32;20272;-57
2021/09/14 08:22:27;;;;;;;13.18;4.85;;;;;;;;;;4432261;32;20244;-57
2021/09/14 08:24:52;;;;;;;8.05;3.80;;;;;;;;;;4405911;32;20587;-58
2021/09/14 08:27:18;;;;;;;6.72;4.45;;;;;;;;;;4432680;32;20271;-57
2021/09/14 08:29:43;;;;;;;10.43;4.10;;;;;;;;;;4418295;32;20732;-57
2021/09/14 08:32:09;;;;;;;6.28;4.03;;;;;;;;;;4432565;32;20611;-57
2021/09/14 08:34:34;;;;;;;12.30;4.45;;;;;;;;;;4432690;32;20276;-57
2021/09/14 08:37:00;;;;;;;8.27;4.22;;;;;;;;;;4432532;32;20265;-57
2021/09/14 08:39:25;;;;;;;13.55;4.53;;;;;;;;;;4433050;32;20746;-57
2021/09/14 08:41:51;;;;;;;7.93;3.97;;;;;;;;;;4432587;32;20235;-57
2021/09/14 08:44:16;;;;;;;9.40;3.83;;;;;;;;;;4433050;32;20260;-57
2021/09/14 08:46:42;;;;;;;6.70;3.92;;;;;;;;;;4432845;32;20208;-57
2021/09/14 08:49:10;;;;;;;9.45;3.97;;;;;;;;;;4432599;32;20340;-57
2021/09/14 08:51:36;;;;;;;6.12;3.70;;;;;;;;;;4418565;32;20342;-57
2021/09/14 08:54:01;;;;;;;5.50;3.50;;;;;;;;;;4433173;32;20221;-57
2021/09/14 08:56:27;;;;;;;6.47;3.55;;;;;;;;;;4433294;32;20208;-57
2021/09/14 08:59:00;;;;;;;9.50;3.55;;;;;;;;;;4433012;32;20444;-57
2021/09/14 09:01:25;;;;;;;5.22;3.75;;;;;;;;;;4433088;32;20581;-58
2021/09/14 09:04:03;;;;;;;7.45;4.15;;;;;;;;;;4432960;32;20616;-58
2021/09/14 09:06:37;;;;;;;6.20;3.60;;;;;;;;;;4432571;32;20223;-57
2021/09/14 09:09:17;;;;;;;6.22;3.95;;;;;;;;;;4432897;32;20287;-57
2021/09/14 09:11:55;;;;;;;3.75;3.33;;;;;;;;;;4418183;32;20289;-57
2021/09/14 09:14:42;;;;;;;4.62;3.33;;;;;;;;;;4432677;32;20235;-58
2021/09/14 09:17:13;;;;;;;6.07;3.22;;;;;;;;;;4432576;32;20652;-57
2021/09/14 09:19:40;;;;;;;4.95;3.78;;;;;;;;;;4418525;32;20687;-58
2021/09/14 09:22:07;;;;;;;7.37;3.30;;;;;;;;;;4434497;32;20272;-57
2021/09/14 09:24:43;;;;;;;4.95;3.03;;;;;;;;;;4421777;32;20228;-58
2021/09/14 09:27:14;;;;;;;4.60;2.97;;;;;;;;;;4435103;32;20580;-58
2021/09/14 09:29:40;;;;;;;4.70;2.72;;;;;;;;;;4435268;32;20197;-57
2021/09/14 09:32:06;;;;;;;8.60;3.20;;;;;;;;;;4433299;32;20292;-57
2021/09/14 09:34:32;;;;;;;10.40;3.42;;;;;;;;;;4420012;32;20272;-57
2021/09/14 09:37:06;;;;;;;5.82;3.40;;;;;;;;;;4405905;32;20279;-57
2021/09/14 09:39:47;;;;;;;3.28;2.58;;;;;;;;;;4406137;32;20241;-56
2021/09/14 09:42:14;;;;;;;4.57;2.90;;;;;;;;;;4420041;32;20275;-56
2021/09/14 09:44:50;;;;;;;2.85;2.05;;;;;;;;;;4419936;32;20272;-56
2021/09/14 09:47:18;;;;;;;5.82;3.33;;;;;;;;;;4420021;32;20224;-57
2021/09/14 09:49:44;;;;;;;4.75;2.62;;;;;;;;;;4419400;32;20607;-56
2021/09/14 09:52:10;;;;;;;3.78;2.42;;;;;;;;;;4419722;32;20626;-56
2021/09/14 09:54:36;;;;;;;3.35;2.58;;;;;;;;;;4419756;32;20360;-57
2021/09/14 09:57:02;;;;;;;3.40;2.47;;;;;;;;;;4419145;32;20212;-56
2021/09/14 09:59:27;;;;;;;6.10;2.45;;;;;;;;;;4393300;32;20299;-56
2021/09/14 10:02:23;;;;;;;4.05;2.58;;;;;;;;;;4419194;32;20307;-56
2021/09/14 10:04:56;;;;;;;8.48;2.97;;;;;;;;;;4406470;32;20647;-57
2021/09/14 10:07:25;;;;;;;5.00;2.78;;;;;;;;;;4419676;32;20295;-56
2021/09/14 10:09:53;;;;;;;3.30;2.12;;;;;;;;;;4419429;32;20224;-57
2021/09/14 10:12:23;;;;;;;5.00;3.17;;;;;;;;;;4405517;32;20310;-56
2021/09/14 10:15:03;;;;;;;5.62;3.15;;;;;;;;;;4419094;32;20340;-57
2021/09/14 10:17:30;;;;;;;5.40;2.78;;;;;;;;;;4421243;32;20398;-57
2021/09/14 10:19:56;;;;;;;5.50;2.87;;;;;;;;;;4434468;32;20396;-57
2021/09/14 10:22:25;;;;;;;8.85;2.87;;;;;;;;;;4424521;32;20256;-57
2021/09/14 10:24:58;;;;;;;6.15;2.53;;;;;;;;;;4419058;32;20288;-57
2021/09/14 10:27:35;;;;;;;4.65;2.47;;;;;;;;;;4419351;32;20302;-57
2021/09/14 10:30:00;;;;;;;4.30;2.60;;;;;;;;;;4417927;32;20822;-57
2021/09/14 10:32:37;;;;;;;3.05;2.00;;;;;;;;;;4420265;32;20315;-57
2021/09/14 10:35:03;;;;;;;4.05;2.70;;;;;;;;;;4434636;32;20261;-56
2021/09/14 10:37:31;;;;;;;4.00;2.70;;;;;;;;;;4434290;32;20672;-56
2021/09/14 10:40:14;;;;;;;5.05;2.62;;;;;;;;;;4434336;32;20298;-57
2021/09/14 10:42:46;;;;;;;7.93;2.58;;;;;;;;;;4434450;32;20296;-57
2021/09/14 10:45:17;;;;;;;6.97;4.12;;;;;;;;;;4434379;32;20213;-56
2021/09/14 10:47:48;;;;;;;7.00;2.25;;;;;;;;;;4434340;32;20288;-56
2021/09/14 10:50:32;;;;;;;3.90;2.10;;;;;;;;;;4434164;32;20197;-56
2021/09/14 10:53:02;;;;;;;3.92;1.95;;;;;;;;;;4419827;32;20257;-56
2021/09/14 10:55:29;;;;;;;2.33;1.60;;;;;;;;;;4433844;32;20243;-56
2021/09/14 10:58:00;;;;;;;7.75;2.67;;;;;;;;;;4433596;32;20229;-56
2021/09/14 11:00:28;;;;;;;3.05;1.85;;;;;;;;;;4419648;32;20237;-56
2021/09/14 11:03:02;;;;;;;3.25;1.92;;;;;;;;;;4419686;32;20245;-57
2021/09/14 11:05:29;;;;;;;3.97;2.30;;;;;;;;;;4433645;32;20293;-56
2021/09/14 11:07:59;;;;;;;2.87;1.90;;;;;;;;;;4433794;32;20216;-56
2021/09/14 11:10:24;;;;;;;4.40;2.05;;;;;;;;;;4434015;32;20281;-57
2021/09/14 11:12:50;;;;;;;3.60;2.10;;;;;;;;;;4433526;32;20304;-57
2021/09/14 11:15:15;;;;;;;3.30;2.28;;;;;;;;;;4419369;32;20308;-56
2021/09/14 11:17:41;;;;;;;4.55;2.08;;;;;;;;;;4433423;32;20255;-57
2021/09/14 11:20:09;;;;;;;2.85;2.15;;;;;;;;;;4433334;32;20267;-57
2021/09/14 11:22:37;;;;;;;3.00;2.10;;;;;;;;;;4432858;32;20255;-57
2021/09/14 11:25:04;;;;;;;4.60;3.10;;;;;;;;;;4418960;32;20253;-58
2021/09/14 11:27:30;;;;;;;5.90;3.45;;;;;;;;;;4433473;32;20325;-58
2021/09/14 11:29:57;;;;;;;3.47;2.28;;;;;;;;;;4433444;32;20296;-58
2021/09/14 11:32:23;;;;;;;3.72;2.28;;;;;;;;;;4429291;32;20221;-57
2021/09/14 11:34:52;;;;;;;4.80;2.53;;;;;;;;;;4418227;32;20348;-57
2021/09/14 11:37:31;;;;;;;3.85;2.37;;;;;;;;;;4417900;32;20224;-58
2021/09/14 11:39:57;;;;;;;5.35;1.75;;;;;;;;;;4418036;32;20367;-58
2021/09/14 11:42:23;;;;;;;7.65;2.15;;;;;;;;;;4418020;32;20231;-58
2021/09/14 11:45:01;;;;;;;4.07;2.05;;;;;;;;;;4416275;32;20629;-58
2021/09/14 11:47:26;;;;;;;5.05;2.20;;;;;;;;;;4418041;32;20360;-57
2021/09/14 11:49:52;;;;;;;5.32;1.70;;;;;;;;;;4417437;32;20682;-57
2021/09/14 11:52:18;;;;;;;3.25;2.10;;;;;;;;;;4417927;32;20533;-57
2021/09/14 11:54:44;;;;;;;4.07;2.10;;;;;;;;;;4418051;32;20288;-59
2021/09/14 11:57:21;;;;;;;3.12;1.83;;;;;;;;;;4417849;32;20366;-58
2021/09/14 11:59:47;;;;;;;3.62;2.25;;;;;;;;;;4418198;32;20193;-58
2021/09/14 12:02:15;;;;;;;3.15;1.80;;;;;;;;;;4417821;32;20297;-58
2021/09/14 12:04:41;;;;;;;3.53;2.10;;;;;;;;;;4417769;32;20518;-58
2021/09/14 12:07:17;;;;;;;4.50;2.05;;;;;;;;;;4417713;32;20267;-58
2021/09/14 12:09:43;;;;;;;6.12;3.05;;;;;;;;;;4418286;32;20264;-58
2021/09/14 12:12:11;;;;;;;3.28;2.05;;;;;;;;;;4432975;32;20231;-58
2021/09/14 12:14:36;;;;;;;4.80;2.25;;;;;;;;;;4433360;32;20660;-57
2021/09/14 12:17:04;;;;;;;3.65;2.08;;;;;;;;;;4433148;32;20212;-57
2021/09/14 12:19:30;;;;;;;3.40;1.90;;;;;;;;;;4433127;32;20197;-57
2021/09/14 12:21:56;;;;;;;5.18;2.35;;;;;;;;;;4432393;32;20284;-57
2021/09/14 12:24:22;;;;;;;3.30;2.12;;;;;;;;;;4433232;32;20306;-57
2021/09/14 12:26:51;;;;;;;3.17;2.22;;;;;;;;;;4432870;32;20209;-57
2021/09/14 12:29:19;;;;;;;2.10;1.77;;;;;;;;;;4433223;32;20213;-57
2021/09/14 12:31:45;;;;;;;3.50;2.15;;;;;;;;;;4432728;32;20506;-57
2021/09/14 12:34:11;;;;;;;2.35;1.73;;;;;;;;;;4432603;32;20667;-57
2021/09/14 12:36:37;;;;;;;2.92;1.58;;;;;;;;;;4433108;32;20244;-57
2021/09/14 12:39:03;;;;;;;2.75;1.90;;;;;;;;;;4433217;32;20264;-57
2021/09/14 12:41:29;;;;;;;5.40;2.12;;;;;;;;;;4432979;32;20239;-57
2021/09/14 12:43:55;;;;;;;2.60;1.70;;;;;;;;;;4433115;32;20554;-56
2021/09/14 12:46:20;;;;;;;3.33;1.73;;;;;;;;;;4418686;32;20284;-58
2021/09/14 12:48:46;;;;;;;3.58;1.70;;;;;;;;;;4432730;32;20334;-57
2021/09/14 12:51:12;;;;;;;3.08;2.05;;;;;;;;;;4432779;32;20296;-58
2021/09/14 12:53:38;;;;;;;3.05;2.12;;;;;;;;;;4433177;32;20339;-58
2021/09/14 12:56:04;;;;;;;2.60;1.80;;;;;;;;;;4435430;32;20374;-58
2021/09/14 12:58:30;;;;;;;5.47;1.70;;;;;;;;;;4435814;32;20814;-57
2021/09/14 13:00:56;;;;;;;3.10;1.55;;;;;;;;;;4435845;32;20295;-57
2021/09/14 13:03:21;;;;;;;6.00;1.90;;;;;;;;;;4435831;32;20236;-57
2021/09/14 13:05:47;;;;;;;2.62;1.75;;;;;;;;;;4435532;32;20201;-57
2021/09/14 13:08:12;;;;;;;4.60;1.80;;;;;;;;;;4435560;32;20317;-56
2021/09/14 13:10:38;;;;;;;2.87;1.75;;;;;;;;;;4435711;32;20229;-58
2021/09/14 13:18:34;;;;;;;3.85;2.50;;;;;;;;;;4435626;32;20717;-58
2021/09/14 13:21:01;;;;;;;2.20;1.80;;;;;;;;;;4434922;32;20206;-58
2021/09/14 13:23:26;;;;;;;5.05;1.67;;;;;;;;;;4435256;32;20690;-58
2021/09/14 13:25:52;;;;;;;2.20;1.67;;;;;;;;;;4434998;32;20196;-58
2021/09/14 13:28:18;;;;;;;3.17;1.65;;;;;;;;;;4435440;32;20268;-58
2021/09/14 13:30:44;;;;;;;11.52;2.87;;;;;;;;;;4421183;32;20290;-57
2021/09/14 13:33:09;;;;;;;1.73;1.30;;;;;;;;;;4426217;32;20411;-57
2021/09/14 13:35:35;;;;;;;1.65;1.45;;;;;;;;;;4419992;32;20266;-59
2021/09/14 13:38:00;;;;;;;2.35;1.60;;;;;;;;;;4419806;32;20233;-58
2021/09/14 13:40:26;;;;;;;5.70;1.60;;;;;;;;;;4419982;32;20205;-57
2021/09/14 13:42:56;;;;;;;2.17;1.75;;;;;;;;;;4419433;32;20661;-57
2021/09/14 13:48:06;;;;;;;1.87;1.67;;;;;;;;;;4419493;32;20349;-58
2021/09/14 13:50:32;;;;;;;1.62;1.30;;;;;;;;;;4418051;32;20641;-58
2021/09/14 13:52:58;;;;;;;3.10;2.10;;;;;;;;;;4419390;32;20264;-57
2021/09/14 13:55:23;;;;;;;2.35;2.03;;;;;;;;;;4419723;32;20251;-58
2021/09/14 13:57:49;;;;;;;2.42;1.70;;;;;;;;;;4419274;32;20240;-58
2021/09/14 14:00:15;;;;;;;4.07;1.67;;;;;;;;;;4419092;32;20288;-58
2021/09/14 14:02:41;;;;;;;5.40;2.00;;;;;;;;;;4422726;32;20676;-58
2021/09/14 14:05:07;;;;;;;3.10;1.80;;;;;;;;;;4434706;32;20326;-58
2021/09/14 14:07:32;;;;;;;2.03;1.62;;;;;;;;;;4434764;32;20263;-57
2021/09/14 14:09:57;;;;;;;2.87;1.85;;;;;;;;;;4434726;32;20280;-58
2021/09/14 14:12:23;;;;;;;2.47;2.10;;;;;;;;;;4434605;32;20220;-58
2021/09/14 14:14:49;;;;;;;3.05;2.22;;;;;;;;;;4434707;32;20362;-58
2021/09/14 14:17:14;;;;;;;2.97;1.70;;;;;;;;;;4420579;32;20259;-58
2021/09/14 14:19:40;;;;;;;3.55;1.92;;;;;;;;;;4434089;32;20320;-58
2021/09/14 14:22:05;;;;;;;3.28;1.90;;;;;;;;;;4426227;32;20279;-58
2021/09/14 14:24:31;;;;;;;3.90;1.90;;;;;;;;;;4417905;32;20311;-58
2021/09/14 14:26:56;;;;;;;4.70;1.60;;;;;;;;;;4419017;32;20607;-58
2021/09/14 14:29:22;;;;;;;2.42;1.70;;;;;;;;;;4419571;32;20288;-58
2021/09/14 14:31:47;;;;;;;3.67;2.10;;;;;;;;;;4418963;32;20233;-58
2021/09/14 14:34:12;;;;;;;3.72;2.92;;;;;;;;;;4419278;32;20835;-57
2021/09/14 14:36:38;;;;;;;3.30;2.00;;;;;;;;;;4433608;32;20208;-58
2021/09/14 14:39:03;;;;;;;2.30;1.90;;;;;;;;;;4434257;32;20676;-58
2021/09/14 14:41:29;;;;;;;3.08;2.20;;;;;;;;;;4420209;32;20594;-57
2021/09/14 14:43:54;;;;;;;3.33;1.80;;;;;;;;;;4434464;32;20236;-58
2021/09/14 14:46:20;;;;;;;2.22;1.58;;;;;;;;;;4420230;32;20705;-58
2021/09/14 14:48:45;;;;;;;3.25;1.67;;;;;;;;;;4433711;32;20322;-57
2021/09/14 14:51:11;;;;;;;4.32;1.70;;;;;;;;;;4434402;32;20205;-57
2021/09/14 14:53:36;;;;;;;3.15;1.60;;;;;;;;;;4433741;32;20667;-57
2021/09/14 14:56:03;;;;;;;3.35;1.90;;;;;;;;;;4419725;32;20606;-57
2021/09/14 14:58:28;;;;;;;3.55;2.05;;;;;;;;;;4433629;32;20322;-57
2021/09/14 15:00:54;;;;;;;4.47;1.48;;;;;;;;;;4433068;32;20201;-57
2021/09/14 15:03:20;;;;;;;2.25;1.55;;;;;;;;;;4433294;32;20240;-57
2021/09/14 15:05:46;;;;;;;4.50;2.33;;;;;;;;;;4433415;32;20279;-57
2021/09/14 15:08:12;;;;;;;2.95;2.05;;;;;;;;;;4433603;32;20397;-58
2021/09/14 15:10:37;;;;;;;3.70;2.22;;;;;;;;;;4433333;32;20366;-58
2021/09/14 15:13:02;;;;;;;2.62;1.90;;;;;;;;;;4433842;32;20275;-57
2021/09/14 15:15:28;;;;;;;8.30;2.33;;;;;;;;;;4433606;32;20229;-57
2021/09/14 15:17:54;;;;;;;6.10;2.05;;;;;;;;;;4418769;32;20228;-57
2021/09/14 15:20:19;;;;;;;5.32;2.00;;;;;;;;;;4433755;32;20629;-57
2021/09/14 15:22:46;;;;;;;3.95;1.90;;;;;;;;;;4432905;32;20672;-57
2021/09/14 15:25:13;;;;;;;2.72;1.40;;;;;;;;;;4433829;32;20235;-58
2021/09/14 15:27:38;;;;;;;3.12;1.90;;;;;;;;;;4433652;32;20575;-58
2021/09/14 15:30:07;;;;;;;3.50;2.10;;;;;;;;;;4419283;32;20319;-58
2021/09/14 15:32:33;;;;;;;3.58;2.17;;;;;;;;;;4428592;32;20248;-58
2021/09/14 15:34:58;;;;;;;2.17;1.50;;;;;;;;;;4419112;32;20306;-58
2021/09/14 15:37:24;;;;;;;4.93;1.90;;;;;;;;;;4421224;32;20229;-58
2021/09/14 15:39:49;;;;;;;4.18;1.77;;;;;;;;;;4417954;32;20281;-58
2021/09/14 15:42:15;;;;;;;5.22;3.00;;;;;;;;;;4417359;32;20216;-58
2021/09/14 15:44:41;;;;;;;6.35;2.95;;;;;;;;;;4418425;32;20613;-59